createdAt,value
2022-10-11T00:02:07.484Z,55.80
2022-10-11T00:04:35.382Z,55.90
2022-10-11T00:07:03.440Z,55.80
2022-10-11T00:09:31.716Z,55.80
2022-10-11T00:11:59.581Z,55.90
2022-10-11T00:14:28.469Z,55.80
2022-10-11T00:16:56.324Z,55.80
2022-10-11T00:19:25.476Z,55.80
2022-10-11T00:21:53.577Z,55.80
2022-10-11T00:24:21.396Z,55.80
2022-10-11T00:26:49.218Z,55.80
2022-10-11T00:29:17.042Z,55.80
2022-10-11T00:31:44.906Z,55.80
2022-10-11T00:34:13.281Z,55.90
2022-10-11T00:36:42.465Z,55.80
2022-10-11T00:39:10.273Z,55.80
2022-10-11T00:41:38.167Z,55.80
2022-10-11T00:44:15.553Z,55.90
2022-10-11T00:46:45.749Z,55.80
2022-10-11T00:49:20.580Z,55.80
2022-10-11T00:51:54.177Z,55.90
2022-10-11T00:54:26.621Z,55.90
2022-10-11T00:56:59.967Z,55.80
2022-10-11T00:59:30.930Z,55.80
2022-10-11T01:01:59.025Z,55.90
2022-10-11T01:04:26.864Z,55.80
2022-10-11T01:06:56.698Z,55.80
2022-10-11T01:09:24.842Z,55.80
2022-10-11T01:11:57.167Z,55.80
2022-10-11T01:14:50.941Z,55.80
2022-10-11T01:17:27.409Z,55.90
2022-10-11T01:20:12.484Z,55.80
2022-10-11T01:23:05.368Z,55.80
2022-10-11T01:25:40.634Z,55.80
2022-10-11T01:28:35.463Z,55.80
2022-10-11T01:31:12.288Z,55.80
2022-10-11T01:33:46.350Z,55.80
2022-10-11T01:36:27.669Z,55.80
2022-10-11T01:39:00.385Z,55.80
2022-10-11T01:41:31.309Z,55.80
2022-10-11T01:44:01.721Z,55.80
2022-10-11T01:46:32.256Z,55.80
2022-10-11T01:49:02.540Z,55.80
2022-10-11T01:51:33.718Z,55.80
2022-10-11T01:54:14.641Z,55.80
2022-10-11T01:57:01.966Z,55.80
2022-10-11T01:59:44.672Z,55.80
2022-10-11T02:02:28.296Z,55.80
2022-10-11T02:05:00.804Z,55.80
2022-10-11T02:07:36.184Z,55.80
2022-10-11T02:10:11.847Z,55.80
2022-10-11T02:12:44.029Z,55.80
2022-10-11T02:15:15.165Z,55.80
2022-10-11T02:17:48.854Z,55.80
2022-10-11T02:20:20.465Z,55.80
2022-10-11T02:22:52.333Z,55.80
2022-10-11T02:25:25.717Z,55.80
2022-10-11T02:27:57.900Z,55.80
2022-10-11T02:30:25.847Z,55.80
2022-10-11T02:32:55.562Z,55.80
2022-10-11T02:35:27.643Z,55.80
2022-10-11T02:38:05.430Z,55.80
2022-10-11T02:40:36.300Z,55.80
2022-10-11T02:43:06.488Z,55.80
2022-10-11T02:45:39.300Z,55.80
2022-10-11T02:48:11.818Z,55.80
2022-10-11T02:50:41.221Z,55.80
2022-10-11T02:53:09.778Z,55.80
2022-10-11T02:55:37.996Z,55.70
2022-10-11T02:58:05.886Z,55.80
2022-10-11T03:00:33.746Z,55.80
2022-10-11T03:03:01.560Z,55.80
2022-10-11T03:05:30.726Z,55.80
2022-10-11T03:07:58.544Z,55.80
2022-10-11T03:10:26.383Z,55.80
2022-10-11T03:12:54.208Z,55.80
2022-10-11T03:15:22.058Z,55.80
2022-10-11T03:17:50.473Z,55.80
2022-10-11T03:20:18.399Z,55.80
2022-10-11T03:22:47.562Z,55.80
2022-10-11T03:25:15.395Z,55.80
2022-10-11T03:27:43.290Z,55.80
2022-10-11T03:30:17.307Z,55.80
2022-10-11T03:32:46.156Z,55.80
2022-10-11T03:35:14.477Z,55.80
2022-10-11T03:37:42.328Z,55.80
2022-10-11T03:40:13.446Z,55.80
2022-10-11T03:42:41.419Z,55.80
2022-10-11T03:45:10.244Z,55.80
2022-10-11T03:47:39.331Z,55.80
2022-10-11T03:50:08.843Z,55.80
2022-10-11T03:52:36.753Z,55.80
2022-10-11T03:55:06.407Z,55.80
2022-10-11T03:57:35.656Z,55.80
2022-10-11T04:00:03.557Z,55.80
2022-10-11T04:02:33.686Z,55.80
2022-10-11T04:05:05.943Z,55.80
2022-10-11T04:07:34.310Z,55.80
2022-10-11T04:10:02.134Z,55.80
2022-10-11T04:12:30.003Z,55.80
2022-10-11T04:14:59.288Z,55.80
2022-10-11T04:17:27.150Z,55.80
2022-10-11T04:19:54.985Z,55.80
2022-10-11T04:22:22.818Z,55.80
2022-10-11T04:24:50.659Z,55.80
2022-10-11T04:27:18.477Z,55.80
2022-10-11T04:29:46.286Z,55.80
2022-10-11T04:32:15.442Z,55.80
2022-10-11T04:34:43.740Z,55.80
2022-10-11T04:37:11.630Z,55.80
2022-10-11T04:39:39.720Z,55.80
2022-10-11T04:42:07.571Z,55.80
2022-10-11T04:44:35.537Z,55.80
2022-10-11T04:47:03.349Z,55.80
2022-10-11T04:49:32.526Z,55.80
2022-10-11T04:52:00.354Z,55.80
2022-10-11T04:54:28.437Z,55.80
2022-10-11T04:56:56.360Z,55.80
2022-10-11T04:59:24.192Z,55.80
2022-10-11T05:01:52.037Z,55.80
2022-10-11T05:04:19.926Z,55.90
2022-10-11T05:06:49.079Z,55.80
2022-10-11T05:09:16.972Z,55.90
2022-10-11T05:11:44.815Z,55.80
2022-10-11T05:14:12.695Z,55.80
2022-10-11T05:16:40.592Z,55.80
2022-10-11T05:19:08.530Z,55.80
2022-10-11T05:21:36.354Z,55.90
2022-10-11T05:24:06.061Z,55.80
2022-10-11T05:26:33.907Z,55.80
2022-10-11T05:29:01.779Z,55.90
2022-10-11T05:31:29.691Z,55.90
2022-10-11T05:33:57.516Z,55.90
2022-10-11T05:36:25.351Z,55.90
2022-10-11T05:38:53.201Z,55.80
2022-10-11T05:41:22.510Z,55.90
2022-10-11T05:43:50.324Z,55.90
2022-10-11T05:46:18.164Z,55.90
2022-10-11T05:48:46.005Z,55.90
2022-10-11T05:51:14.231Z,55.90
2022-10-11T05:53:42.274Z,55.90
2022-10-11T05:56:20.397Z,55.90
2022-10-11T05:58:49.775Z,55.90
2022-10-11T06:01:19.975Z,55.90
2022-10-11T06:03:48.096Z,55.90
2022-10-11T06:06:16.664Z,55.90
2022-10-11T06:08:44.541Z,55.90
2022-10-11T06:11:16.712Z,55.90
2022-10-11T06:13:44.812Z,55.90
2022-10-11T06:16:14.505Z,55.90
2022-10-11T06:18:42.504Z,55.90
2022-10-11T06:21:10.447Z,55.90
2022-10-11T06:23:38.269Z,55.90
2022-10-11T06:26:08.714Z,55.90
2022-10-11T06:28:38.641Z,55.90
2022-10-11T06:31:07.217Z,55.90
2022-10-11T06:33:37.425Z,55.90
2022-10-11T06:36:08.565Z,55.90
2022-10-11T06:38:39.790Z,55.90
2022-10-11T06:41:11.748Z,55.90
2022-10-11T06:43:39.684Z,55.90
2022-10-11T06:46:08.324Z,55.90
2022-10-11T06:48:41.271Z,55.90
2022-10-11T06:51:09.138Z,55.90
2022-10-11T06:53:36.942Z,55.90
2022-10-11T06:56:05.668Z,55.90
2022-10-11T06:58:34.306Z,55.90
2022-10-11T07:01:02.526Z,55.90
2022-10-11T07:03:30.692Z,55.90
2022-10-11T07:06:03.036Z,55.90
2022-10-11T07:08:31.223Z,55.90
2022-10-11T07:11:02.113Z,55.90
2022-10-11T07:13:29.982Z,55.90
2022-10-11T07:15:57.983Z,55.90
2022-10-11T07:18:25.800Z,55.90
2022-10-11T07:20:53.643Z,55.90
2022-10-11T07:23:23.682Z,55.90
2022-10-11T07:25:54.409Z,55.90
2022-10-11T07:28:22.677Z,56.00
2022-10-11T07:30:50.910Z,55.90
2022-10-11T07:33:19.188Z,55.90
2022-10-11T07:35:48.582Z,55.90
2022-10-11T07:38:17.366Z,55.90
2022-10-11T07:40:47.716Z,55.90
2022-10-11T07:43:15.919Z,55.90
2022-10-11T07:45:45.384Z,56.00
2022-10-11T07:48:13.246Z,56.00
2022-10-11T07:50:41.035Z,55.90
2022-10-11T07:53:09.734Z,55.90
2022-10-11T07:55:40.192Z,56.00
2022-10-11T07:58:10.748Z,56.00
2022-10-11T08:00:39.998Z,56.00
2022-10-11T08:03:08.256Z,56.00
2022-10-11T08:05:37.898Z,55.90
2022-10-11T08:08:06.337Z,56.00
2022-10-11T08:10:39.136Z,55.90
2022-10-11T08:13:07.643Z,56.00
2022-10-11T08:15:37.101Z,56.00
2022-10-11T08:18:05.133Z,56.00
2022-10-11T08:20:33.132Z,56.00
2022-10-11T08:23:01.015Z,56.00
2022-10-11T08:25:28.951Z,56.00
2022-10-11T08:27:56.804Z,56.60
2022-10-11T08:30:24.784Z,56.00
2022-10-11T08:32:53.959Z,56.00
2022-10-11T08:35:21.873Z,56.00
2022-10-11T08:37:49.703Z,56.00
2022-10-11T08:40:19.159Z,56.00
2022-10-11T08:42:53.144Z,56.00
2022-10-11T08:45:30.237Z,56.00
2022-10-11T08:48:09.473Z,55.90
2022-10-11T08:50:38.640Z,56.00
2022-10-11T08:53:14.548Z,56.00
2022-10-11T08:55:45.723Z,55.90
2022-10-11T08:58:17.073Z,56.00
2022-10-11T09:00:48.309Z,56.00
2022-10-11T09:03:27.494Z,56.00
2022-10-11T09:06:08.616Z,56.00
2022-10-11T09:08:57.550Z,56.00
2022-10-11T09:11:35.616Z,56.00
2022-10-11T09:14:20.479Z,56.00
2022-10-11T09:17:01.704Z,56.00
2022-10-11T09:20:03.921Z,55.90
2022-10-11T09:22:42.545Z,56.00
2022-10-11T09:25:24.097Z,56.00
2022-10-11T09:28:04.118Z,56.10
2022-10-11T09:30:33.502Z,56.10
2022-10-11T09:33:11.848Z,55.90
2022-10-11T09:35:43.925Z,56.00
2022-10-11T09:38:22.689Z,56.00
2022-10-11T09:41:01.564Z,56.10
2022-10-11T09:43:29.512Z,56.00
2022-10-11T09:45:57.341Z,56.00
2022-10-11T09:48:29.579Z,55.90
2022-10-11T09:51:05.658Z,56.10
2022-10-11T09:53:57.091Z,56.00
2022-10-11T09:56:27.200Z,55.90
2022-10-11T09:59:10.252Z,55.90
2022-10-11T10:01:38.265Z,56.10
2022-10-11T10:04:11.515Z,56.00
2022-10-11T10:06:42.366Z,56.10
2022-10-11T10:09:23.010Z,56.00
2022-10-11T10:11:50.961Z,56.10
2022-10-11T10:14:22.623Z,56.00
2022-10-11T10:17:00.508Z,56.10
2022-10-11T10:19:29.165Z,56.00
2022-10-11T10:21:58.709Z,56.10
2022-10-11T10:24:37.740Z,56.20
2022-10-11T10:27:18.035Z,56.10
2022-10-11T10:30:02.832Z,56.00
2022-10-11T10:32:36.892Z,56.00
2022-10-11T10:35:13.334Z,56.00
2022-10-11T10:37:46.815Z,56.00
2022-10-11T10:40:19.639Z,56.00
2022-10-11T10:42:47.524Z,56.00
2022-10-11T10:45:21.530Z,56.10
2022-10-11T10:48:06.707Z,56.00
2022-10-11T10:50:49.714Z,56.10
2022-10-11T10:53:29.944Z,56.00
2022-10-11T10:56:06.688Z,56.00
2022-10-11T10:58:51.820Z,56.10
2022-10-11T11:01:24.275Z,56.10
2022-10-11T11:03:58.620Z,56.00
2022-10-11T11:06:35.709Z,56.00
2022-10-11T11:09:19.701Z,56.00
2022-10-11T11:11:59.054Z,56.10
2022-10-11T11:14:40.252Z,56.00
2022-10-11T11:17:16.644Z,56.00
2022-10-11T11:19:59.252Z,56.00
2022-10-11T11:22:41.208Z,56.00
2022-10-11T11:25:25.549Z,56.10
2022-10-11T11:28:06.446Z,56.00
2022-10-11T11:30:45.224Z,56.00
2022-10-11T11:33:21.279Z,56.10
2022-10-11T11:35:53.004Z,56.10
2022-10-11T11:38:29.678Z,56.00
2022-10-11T11:41:02.382Z,56.10
2022-10-11T11:43:35.256Z,56.00
2022-10-11T11:46:10.228Z,56.00
2022-10-11T11:48:39.352Z,56.00
2022-10-11T11:51:13.437Z,56.00
2022-10-11T11:53:53.628Z,56.00
2022-10-11T11:56:32.773Z,56.00
2022-10-11T11:59:15.336Z,56.00
2022-10-11T12:01:50.590Z,56.00
2022-10-11T12:04:25.808Z,56.00
2022-10-11T12:07:16.052Z,56.00
2022-10-11T12:09:50.326Z,56.00
2022-10-11T12:12:31.621Z,56.00
2022-10-11T12:15:19.602Z,56.00
2022-10-11T12:18:04.192Z,56.00
2022-10-11T12:20:35.800Z,56.00
2022-10-11T12:23:06.527Z,56.00
2022-10-11T12:25:41.835Z,56.10
2022-10-11T12:29:01.597Z,56.00
2022-10-11T12:31:32.587Z,56.00
2022-10-11T12:34:32.069Z,56.10
2022-10-11T12:37:03.249Z,56.10
2022-10-11T12:39:52.618Z,56.00
2022-10-11T12:42:29.904Z,56.00
2022-10-11T12:45:25.679Z,56.20
2022-10-11T12:48:03.171Z,56.10
2022-10-11T12:50:40.175Z,56.10
2022-10-11T12:53:23.153Z,56.10
2022-10-11T12:56:01.985Z,56.20
2022-10-11T12:58:38.324Z,56.10
2022-10-11T13:01:24.729Z,56.20
2022-10-11T13:04:01.070Z,56.20
2022-10-11T13:06:32.137Z,56.20
2022-10-11T13:09:05.712Z,56.10
2022-10-11T13:11:36.679Z,56.10
2022-10-11T13:14:09.604Z,56.20
2022-10-11T13:16:50.131Z,56.10
2022-10-11T13:19:23.738Z,56.00
2022-10-11T13:21:55.345Z,56.20
2022-10-11T13:24:24.235Z,56.20
2022-10-11T13:26:55.492Z,56.20
2022-10-11T13:29:32.355Z,56.20
2022-10-11T13:32:00.948Z,56.10
2022-10-11T13:34:35.155Z,56.10
2022-10-11T13:37:03.433Z,56.20
2022-10-11T13:39:35.030Z,56.20
2022-10-11T13:42:05.520Z,56.10
2022-10-11T13:44:35.350Z,56.20
2022-10-11T13:47:03.661Z,56.20
2022-10-11T13:49:39.055Z,56.10
2022-10-11T13:52:19.954Z,56.20
2022-10-11T13:55:00.287Z,56.20
2022-10-11T13:57:38.622Z,56.20
2022-10-11T14:00:25.945Z,56.20
2022-10-11T14:02:58.046Z,56.20
2022-10-11T14:05:31.582Z,56.10
2022-10-11T14:08:02.303Z,56.20
2022-10-11T14:10:30.807Z,56.10
2022-10-11T14:13:01.700Z,56.20
2022-10-11T14:15:31.970Z,56.20
2022-10-11T14:18:01.259Z,56.20
2022-10-11T14:20:38.711Z,56.20
2022-10-11T14:23:07.110Z,56.20
2022-10-11T14:25:35.487Z,56.10
2022-10-11T14:28:05.640Z,56.20
2022-10-11T14:30:33.764Z,56.10
2022-10-11T14:33:03.153Z,56.20
2022-10-11T14:35:32.838Z,56.20
2022-10-11T14:38:02.217Z,56.10
2022-10-11T14:40:31.887Z,56.20
2022-10-11T14:42:59.908Z,56.10
2022-10-11T14:45:27.866Z,56.20
2022-10-11T14:47:57.367Z,56.20
2022-10-11T14:50:33.420Z,56.20
2022-10-11T14:53:02.985Z,56.10
2022-10-11T14:55:31.657Z,56.20
2022-10-11T14:57:59.840Z,56.20
2022-10-11T15:00:30.623Z,56.10
2022-10-11T15:02:58.711Z,56.10
2022-10-11T15:05:33.643Z,56.20
2022-10-11T15:08:03.650Z,56.30
2022-10-11T15:10:35.446Z,56.10
2022-10-11T15:13:04.597Z,56.10
2022-10-11T15:15:35.451Z,56.10
2022-10-11T15:18:04.438Z,56.10
2022-10-11T15:20:35.009Z,56.20
2022-10-11T15:23:04.469Z,56.10
2022-10-11T15:25:32.414Z,56.10
2022-10-11T15:28:00.418Z,56.20
2022-10-11T15:30:30.275Z,56.10
2022-10-11T15:32:58.521Z,56.10
2022-10-11T15:35:27.806Z,56.20
2022-10-11T15:37:57.218Z,56.10
2022-10-11T15:40:29.293Z,56.10
2022-10-11T15:42:57.299Z,56.10
2022-10-11T15:45:25.575Z,56.10
2022-10-11T15:47:53.700Z,56.20
2022-10-11T15:50:34.780Z,56.10
2022-10-11T15:53:03.749Z,56.10
2022-10-11T15:55:34.105Z,56.10
2022-10-11T15:58:02.474Z,56.10
2022-10-11T16:00:30.968Z,56.20
2022-10-11T16:03:00.098Z,56.10
2022-10-11T16:05:29.011Z,56.10
2022-10-11T16:07:56.848Z,56.10
2022-10-11T16:10:24.687Z,56.20
2022-10-11T16:12:53.962Z,56.10
2022-10-11T16:15:21.786Z,56.10
2022-10-11T16:17:50.261Z,56.80
2022-10-11T16:20:22.140Z,56.10
2022-10-11T16:22:50.966Z,56.10
2022-10-11T16:25:19.484Z,56.10
2022-10-11T16:27:47.378Z,56.10
2022-10-11T16:30:19.079Z,56.10
2022-10-11T16:32:46.975Z,56.20
2022-10-11T16:35:16.367Z,56.10
2022-10-11T16:37:45.161Z,56.10
2022-10-11T16:40:15.793Z,56.10
2022-10-11T16:42:43.997Z,56.10
2022-10-11T16:45:12.446Z,56.10
2022-10-11T16:47:42.274Z,56.10
2022-10-11T16:50:11.479Z,56.10
2022-10-11T16:52:39.301Z,56.10
2022-10-11T16:55:07.910Z,56.10
2022-10-11T16:57:37.708Z,56.10
2022-10-11T17:00:07.401Z,56.10
2022-10-11T17:02:35.703Z,56.10
2022-10-11T17:05:05.612Z,56.10
2022-10-11T17:07:33.480Z,56.10
2022-10-11T17:10:01.442Z,56.10
2022-10-11T17:12:29.565Z,56.10
2022-10-11T17:14:57.421Z,56.10
2022-10-11T17:17:25.278Z,56.10
2022-10-11T17:19:53.081Z,56.10
2022-10-11T17:22:22.263Z,56.10
2022-10-11T17:24:50.062Z,56.10
2022-10-11T17:27:17.885Z,56.10
2022-10-11T17:29:45.724Z,56.10
2022-10-11T17:32:13.598Z,56.10
2022-10-11T17:34:41.405Z,56.10
2022-10-11T17:37:10.056Z,56.10
2022-10-11T17:39:39.283Z,56.10
2022-10-11T17:42:07.541Z,56.10
2022-10-11T17:44:36.738Z,56.10
2022-10-11T17:47:04.809Z,56.10
2022-10-11T17:49:32.740Z,56.10
2022-10-11T17:52:00.545Z,56.10
2022-10-11T17:54:28.395Z,56.10
2022-10-11T17:56:57.596Z,56.10
2022-10-11T17:59:27.430Z,56.10
2022-10-11T18:01:55.617Z,56.10
2022-10-11T18:04:26.726Z,56.10
2022-10-11T18:06:54.787Z,56.10
2022-10-11T18:09:23.765Z,56.10
2022-10-11T18:11:52.104Z,56.10
2022-10-11T18:14:21.264Z,56.10
2022-10-11T18:16:49.210Z,56.10
2022-10-11T18:19:17.112Z,56.10
2022-10-11T18:21:45.050Z,56.10
2022-10-11T18:24:15.909Z,56.10
2022-10-11T18:26:44.359Z,56.10
2022-10-11T18:29:13.160Z,56.10
2022-10-11T18:31:42.913Z,56.10
2022-10-11T18:34:13.820Z,56.10
2022-10-11T18:36:41.751Z,56.70
2022-10-11T18:39:12.193Z,56.10
2022-10-11T18:41:42.033Z,56.10
2022-10-11T18:44:10.866Z,56.10
2022-10-11T18:46:38.721Z,56.10
2022-10-11T18:49:08.613Z,56.10
2022-10-11T18:51:38.088Z,56.10
2022-10-11T18:54:07.647Z,56.10
2022-10-11T18:56:37.183Z,56.10
2022-10-11T18:59:06.241Z,56.10
2022-10-11T19:01:36.195Z,56.10
2022-10-11T19:04:05.001Z,56.10
2022-10-11T19:06:36.186Z,56.10
2022-10-11T19:09:05.609Z,56.10
2022-10-11T19:11:34.146Z,56.10
2022-10-11T19:14:06.314Z,56.10
2022-10-11T19:16:37.459Z,56.10
2022-10-11T19:19:05.644Z,56.10
2022-10-11T19:21:35.106Z,56.10
2022-10-11T19:24:03.161Z,56.10
2022-10-11T19:26:33.590Z,56.10
2022-10-11T19:29:03.873Z,56.10
2022-10-11T19:31:32.868Z,56.10
2022-10-11T19:34:02.341Z,56.00
2022-10-11T19:36:35.525Z,56.10
2022-10-11T19:39:06.759Z,56.10
2022-10-11T19:41:34.665Z,56.10
2022-10-11T19:44:02.565Z,56.10
2022-10-11T19:49:21.392Z,56.10
2022-10-11T19:51:49.268Z,56.10
2022-10-11T19:54:18.703Z,56.10
2022-10-11T19:56:46.784Z,56.10
2022-10-11T19:59:15.465Z,56.10
2022-10-11T20:01:47.895Z,56.10
2022-10-11T20:04:46.953Z,56.00
2022-10-11T20:07:06.987Z,56.10
2022-10-11T20:09:36.630Z,56.10
2022-10-11T20:12:04.596Z,56.10
2022-10-11T20:14:32.446Z,56.10
2022-10-11T20:17:00.366Z,56.10
2022-10-11T20:19:31.676Z,56.10
2022-10-11T20:22:00.273Z,56.10
2022-10-11T20:24:32.716Z,56.00
2022-10-11T20:27:03.681Z,56.10
2022-10-11T20:29:31.620Z,56.00
2022-10-11T20:31:59.890Z,56.00
2022-10-11T20:34:28.623Z,56.00
2022-10-11T20:36:56.547Z,56.10
2022-10-11T20:39:24.691Z,56.10
2022-10-11T20:41:52.593Z,56.10
2022-10-11T20:44:21.817Z,56.00
2022-10-11T20:46:49.711Z,56.10
2022-10-11T20:49:19.760Z,56.10
2022-10-11T20:51:47.698Z,56.70
2022-10-11T20:54:15.795Z,56.10
2022-10-11T20:56:44.548Z,56.70
2022-10-11T20:59:12.433Z,56.10
2022-10-11T21:01:42.397Z,56.00
2022-10-11T21:04:18.363Z,56.00
2022-10-11T21:06:46.737Z,56.00
2022-10-11T21:09:16.654Z,56.00
2022-10-11T21:11:45.006Z,56.00
2022-10-11T21:14:12.966Z,56.10
2022-10-11T21:16:42.224Z,56.10
2022-10-11T21:19:14.938Z,56.00
2022-10-11T21:21:43.449Z,56.10
2022-10-11T21:24:11.349Z,56.00
2022-10-11T21:26:39.378Z,56.10
2022-10-11T21:29:08.329Z,56.10
2022-10-11T21:31:36.330Z,56.00
2022-10-11T21:34:07.261Z,56.00
2022-10-11T21:36:35.433Z,56.00
2022-10-11T21:39:03.662Z,56.10
2022-10-11T21:41:31.467Z,56.00
2022-10-11T21:43:59.675Z,56.10
2022-10-11T21:46:54.183Z,56.00
2022-10-11T21:49:19.164Z,56.00
2022-10-11T21:51:47.003Z,56.00
2022-10-11T21:54:14.798Z,56.10
2022-10-11T21:56:43.082Z,56.00
2022-10-11T21:59:12.578Z,56.00
2022-10-11T22:01:41.264Z,56.00
2022-10-11T22:04:09.323Z,56.10
2022-10-11T22:06:39.076Z,56.00
2022-10-11T22:09:08.204Z,56.00
2022-10-11T22:11:36.153Z,56.00
2022-10-11T22:14:04.615Z,56.00
2022-10-11T22:16:34.764Z,56.00
2022-10-11T22:19:02.745Z,56.00
2022-10-11T22:21:30.701Z,56.10
2022-10-11T22:23:59.994Z,56.10
2022-10-11T22:26:30.953Z,56.10
2022-10-11T22:28:59.409Z,56.00
2022-10-11T22:31:27.451Z,56.00
2022-10-11T22:33:56.068Z,56.00
2022-10-11T22:36:24.822Z,56.00
2022-10-11T22:38:53.471Z,56.00
2022-10-11T22:41:22.840Z,56.10
2022-10-11T22:43:50.741Z,56.00
2022-10-11T22:46:18.836Z,56.00
2022-10-11T22:48:46.692Z,56.10
2022-10-11T22:51:14.616Z,56.10
2022-10-11T22:53:42.423Z,56.00
2022-10-11T22:56:11.149Z,56.00
2022-10-11T22:58:40.333Z,56.00
2022-10-11T23:01:09.239Z,56.00
2022-10-11T23:03:37.225Z,56.10
2022-10-11T23:06:05.589Z,56.10
2022-10-11T23:08:33.608Z,56.10
2022-10-11T23:11:04.273Z,56.10
2022-10-11T23:13:32.161Z,56.00
2022-10-11T23:18:38.896Z,56.10
2022-10-11T23:21:07.694Z,56.10
2022-10-11T23:23:35.891Z,56.10
2022-10-11T23:26:05.915Z,56.10
2022-10-11T23:28:34.116Z,56.00
2022-10-11T23:31:07.435Z,56.10
2022-10-11T23:33:35.369Z,56.10
2022-10-11T23:36:03.392Z,56.10
2022-10-11T23:38:31.293Z,56.10
2022-10-11T23:40:59.396Z,56.10
2022-10-11T23:43:27.235Z,56.00
2022-10-11T23:45:55.862Z,56.10
2022-10-11T23:48:25.027Z,56.10
2022-10-11T23:50:52.882Z,56.10
2022-10-11T23:53:20.844Z,56.10
2022-10-11T23:55:48.786Z,56.10
2022-10-11T23:58:16.614Z,56.10
